sensor_id;sensor_type;location;lat;lon;timestamp;P1;durP1;ratioP1;P2;durP2;ratioP2
45893;SDS011;31603;51.148;16.932;2022-12-18T00:01:20;58.83;;;19.73;;
45893;SDS011;31603;51.148;16.932;2022-12-18T00:04:00;60.57;;;19.77;;
45893;SDS011;31603;51.148;16.932;2022-12-18T00:06:34;68.50;;;23.23;;
45893;SDS011;31603;51.148;16.932;2022-12-18T00:09:25;60.35;;;20.45;;
45893;SDS011;31603;51.148;16.932;2022-12-18T00:11:51;61.97;;;19.70;;
45893;SDS011;31603;51.148;16.932;2022-12-18T00:14:18;71.17;;;22.30;;
45893;SDS011;31603;51.148;16.932;2022-12-18T00:16:52;67.37;;;21.23;;
45893;SDS011;31603;51.148;16.932;2022-12-18T00:19:49;60.88;;;19.40;;
45893;SDS011;31603;51.148;16.932;2022-12-18T00:22:18;54.33;;;20.77;;
45893;SDS011;31603;51.148;16.932;2022-12-18T00:27:50;66.60;;;21.10;;
45893;SDS011;31603;51.148;16.932;2022-12-18T00:33:04;54.73;;;19.83;;
45893;SDS011;31603;51.148;16.932;2022-12-18T00:35:45;61.47;;;21.10;;
45893;SDS011;31603;51.148;16.932;2022-12-18T00:38:16;55.73;;;20.23;;
45893;SDS011;31603;51.148;16.932;2022-12-18T00:40:59;58.03;;;20.50;;
45893;SDS011;31603;51.148;16.932;2022-12-18T00:43:49;64.53;;;22.80;;
45893;SDS011;31603;51.148;16.932;2022-12-18T00:46:14;71.37;;;24.77;;
45893;SDS011;31603;51.148;16.932;2022-12-18T00:48:41;72.03;;;23.70;;
45893;SDS011;31603;51.148;16.932;2022-12-18T00:51:20;78.90;;;24.70;;
45893;SDS011;31603;51.148;16.932;2022-12-18T00:57:21;66.33;;;23.83;;
45893;SDS011;31603;51.148;16.932;2022-12-18T00:59:47;64.47;;;21.67;;
45893;SDS011;31603;51.148;16.932;2022-12-18T01:02:14;67.50;;;24.70;;
45893;SDS011;31603;51.148;16.932;2022-12-18T01:05:05;59.17;;;19.40;;
45893;SDS011;31603;51.148;16.932;2022-12-18T01:08:12;61.43;;;20.77;;
45893;SDS011;31603;51.148;16.932;2022-12-18T01:10:42;61.00;;;21.63;;
45893;SDS011;31603;51.148;16.932;2022-12-18T01:15:47;60.00;;;19.53;;
45893;SDS011;31603;51.148;16.932;2022-12-18T01:18:15;64.37;;;21.00;;
45893;SDS011;31603;51.148;16.932;2022-12-18T01:20:41;59.73;;;20.60;;
45893;SDS011;31603;51.148;16.932;2022-12-18T01:23:22;56.90;;;20.73;;
45893;SDS011;31603;51.148;16.932;2022-12-18T01:26:15;63.63;;;21.98;;
45893;SDS011;31603;51.148;16.932;2022-12-18T01:28:42;63.07;;;20.87;;
45893;SDS011;31603;51.148;16.932;2022-12-18T01:31:23;66.07;;;20.43;;
45893;SDS011;31603;51.148;16.932;2022-12-18T01:34:05;56.67;;;20.30;;
45893;SDS011;31603;51.148;16.932;2022-12-18T01:36:33;55.63;;;19.47;;
45893;SDS011;31603;51.148;16.932;2022-12-18T01:39:10;50.10;;;16.53;;
45893;SDS011;31603;51.148;16.932;2022-12-18T01:41:52;54.27;;;18.53;;
45893;SDS011;31603;51.148;16.932;2022-12-18T01:47:44;63.07;;;20.53;;
45893;SDS011;31603;51.148;16.932;2022-12-18T01:50:17;51.27;;;17.30;;
45893;SDS011;31603;51.148;16.932;2022-12-18T01:52:55;51.70;;;19.23;;
45893;SDS011;31603;51.148;16.932;2022-12-18T01:55:55;61.27;;;19.97;;
45893;SDS011;31603;51.148;16.932;2022-12-18T01:58:39;57.43;;;19.97;;
45893;SDS011;31603;51.148;16.932;2022-12-18T02:01:12;55.00;;;19.37;;
45893;SDS011;31603;51.148;16.932;2022-12-18T02:03:44;51.17;;;18.60;;
45893;SDS011;31603;51.148;16.932;2022-12-18T02:06:19;53.40;;;20.17;;
45893;SDS011;31603;51.148;16.932;2022-12-18T02:08:55;51.30;;;19.50;;
45893;SDS011;31603;51.148;16.932;2022-12-18T02:11:53;56.40;;;19.60;;
45893;SDS011;31603;51.148;16.932;2022-12-18T02:14:28;51.43;;;19.47;;
45893;SDS011;31603;51.148;16.932;2022-12-18T02:17:07;58.15;;;18.85;;
45893;SDS011;31603;51.148;16.932;2022-12-18T02:19:44;58.33;;;20.33;;
45893;SDS011;31603;51.148;16.932;2022-12-18T02:22:33;44.67;;;18.10;;
45893;SDS011;31603;51.148;16.932;2022-12-18T02:25:16;55.60;;;19.23;;
45893;SDS011;31603;51.148;16.932;2022-12-18T02:30:41;54.50;;;18.70;;
45893;SDS011;31603;51.148;16.932;2022-12-18T02:33:15;55.07;;;18.03;;
45893;SDS011;31603;51.148;16.932;2022-12-18T02:35:57;48.17;;;17.97;;
45893;SDS011;31603;51.148;16.932;2022-12-18T02:38:33;51.60;;;18.73;;
45893;SDS011;31603;51.148;16.932;2022-12-18T02:41:03;52.97;;;18.30;;
45893;SDS011;31603;51.148;16.932;2022-12-18T02:46:27;52.03;;;20.47;;
45893;SDS011;31603;51.148;16.932;2022-12-18T02:49:05;50.37;;;17.43;;
45893;SDS011;31603;51.148;16.932;2022-12-18T02:51:50;57.70;;;18.87;;
45893;SDS011;31603;51.148;16.932;2022-12-18T02:54:26;53.97;;;19.70;;
45893;SDS011;31603;51.148;16.932;2022-12-18T02:57:05;49.73;;;17.63;;
45893;SDS011;31603;51.148;16.932;2022-12-18T02:59:53;64.20;;;23.10;;
45893;SDS011;31603;51.148;16.932;2022-12-18T03:02:33;47.37;;;17.30;;
45893;SDS011;31603;51.148;16.932;2022-12-18T03:06:12;48.13;;;16.67;;
45893;SDS011;31603;51.148;16.932;2022-12-18T03:08:20;46.17;;;17.70;;
45893;SDS011;31603;51.148;16.932;2022-12-18T03:11:06;55.13;;;18.47;;
45893;SDS011;31603;51.148;16.932;2022-12-18T03:14:03;52.20;;;20.23;;
45893;SDS011;31603;51.148;16.932;2022-12-18T03:16:40;59.13;;;18.47;;
45893;SDS011;31603;51.148;16.932;2022-12-18T03:21:33;51.23;;;18.67;;
45893;SDS011;31603;51.148;16.932;2022-12-18T03:22:17;49.50;;;19.50;;
45893;SDS011;31603;51.148;16.932;2022-12-18T03:24:53;50.20;;;18.33;;
45893;SDS011;31603;51.148;16.932;2022-12-18T03:27:26;50.13;;;17.13;;
45893;SDS011;31603;51.148;16.932;2022-12-18T03:30:18;43.10;;;17.13;;
45893;SDS011;31603;51.148;16.932;2022-12-18T03:32:58;47.43;;;16.80;;
45893;SDS011;31603;51.148;16.932;2022-12-18T03:36:11;56.73;;;19.17;;
45893;SDS011;31603;51.148;16.932;2022-12-18T03:38:40;44.27;;;16.97;;
45893;SDS011;31603;51.148;16.932;2022-12-18T03:41:09;49.97;;;19.27;;
45893;SDS011;31603;51.148;16.932;2022-12-18T03:46:51;51.30;;;18.63;;
45893;SDS011;31603;51.148;16.932;2022-12-18T03:49:44;50.07;;;19.90;;
45893;SDS011;31603;51.148;16.932;2022-12-18T03:52:56;43.67;;;17.70;;
45893;SDS011;31603;51.148;16.932;2022-12-18T03:55:32;46.73;;;17.13;;
45893;SDS011;31603;51.148;16.932;2022-12-18T03:58:19;51.73;;;18.67;;
45893;SDS011;31603;51.148;16.932;2022-12-18T04:01:00;52.97;;;18.70;;
45893;SDS011;31603;51.148;16.932;2022-12-18T04:04:36;47.73;;;16.43;;
45893;SDS011;31603;51.148;16.932;2022-12-18T04:06:37;50.90;;;16.43;;
45893;SDS011;31603;51.148;16.932;2022-12-18T04:09:07;48.87;;;18.60;;
45893;SDS011;31603;51.148;16.932;2022-12-18T04:11:48;49.37;;;17.17;;
45893;SDS011;31603;51.148;16.932;2022-12-18T04:14:16;52.38;;;17.95;;
45893;SDS011;31603;51.148;16.932;2022-12-18T04:16:43;48.80;;;16.33;;
45893;SDS011;31603;51.148;16.932;2022-12-18T04:20:13;46.50;;;15.77;;
45893;SDS011;31603;51.148;16.932;2022-12-18T04:22:20;51.23;;;15.77;;
45893;SDS011;31603;51.148;16.932;2022-12-18T04:25:52;50.47;;;18.27;;
45893;SDS011;31603;51.148;16.932;2022-12-18T04:27:45;51.07;;;17.70;;
45893;SDS011;31603;51.148;16.932;2022-12-18T04:30:12;45.10;;;16.87;;
45893;SDS011;31603;51.148;16.932;2022-12-18T04:32:43;52.15;;;17.92;;
45893;SDS011;31603;51.148;16.932;2022-12-18T04:35:11;48.50;;;17.67;;
45893;SDS011;31603;51.148;16.932;2022-12-18T04:40:30;52.40;;;17.10;;
45893;SDS011;31603;51.148;16.932;2022-12-18T04:42:57;53.23;;;17.23;;
45893;SDS011;31603;51.148;16.932;2022-12-18T04:45:44;47.17;;;16.60;;
45893;SDS011;31603;51.148;16.932;2022-12-18T04:48:13;46.00;;;17.37;;
45893;SDS011;31603;51.148;16.932;2022-12-18T04:50:42;43.37;;;16.80;;
45893;SDS011;31603;51.148;16.932;2022-12-18T04:55:48;55.00;;;17.93;;
45893;SDS011;31603;51.148;16.932;2022-12-18T04:58:17;55.40;;;16.57;;
45893;SDS011;31603;51.148;16.932;2022-12-18T05:00:44;45.13;;;15.93;;
45893;SDS011;31603;51.148;16.932;2022-12-18T05:03:21;48.53;;;17.43;;
45893;SDS011;31603;51.148;16.932;2022-12-18T05:06:03;51.13;;;16.53;;
45893;SDS011;31603;51.148;16.932;2022-12-18T05:08:31;54.37;;;18.63;;
45893;SDS011;31603;51.148;16.932;2022-12-18T05:11:19;50.87;;;17.87;;
45893;SDS011;31603;51.148;16.932;2022-12-18T05:13:46;49.20;;;18.10;;
45893;SDS011;31603;51.148;16.932;2022-12-18T05:16:33;47.03;;;17.33;;
45893;SDS011;31603;51.148;16.932;2022-12-18T05:19:13;50.30;;;18.57;;
45893;SDS011;31603;51.148;16.932;2022-12-18T05:21:44;51.73;;;17.97;;
45893;SDS011;31603;51.148;16.932;2022-12-18T05:24:35;54.83;;;18.53;;
45893;SDS011;31603;51.148;16.932;2022-12-18T05:27:10;52.60;;;17.58;;
45893;SDS011;31603;51.148;16.932;2022-12-18T05:29:43;50.20;;;17.67;;
45893;SDS011;31603;51.148;16.932;2022-12-18T05:32:12;49.27;;;16.03;;
45893;SDS011;31603;51.148;16.932;2022-12-18T05:34:50;51.97;;;19.70;;
45893;SDS011;31603;51.148;16.932;2022-12-18T05:37:56;52.47;;;19.30;;
45893;SDS011;31603;51.148;16.932;2022-12-18T05:40:34;48.30;;;17.77;;
45893;SDS011;31603;51.148;16.932;2022-12-18T05:43:10;45.67;;;18.43;;
45893;SDS011;31603;51.148;16.932;2022-12-18T05:46:19;44.93;;;17.57;;
45893;SDS011;31603;51.148;16.932;2022-12-18T05:48:58;53.15;;;19.13;;
45893;SDS011;31603;51.148;16.932;2022-12-18T05:52:09;46.17;;;16.60;;
45893;SDS011;31603;51.148;16.932;2022-12-18T05:54:34;38.60;;;15.40;;
45893;SDS011;31603;51.148;16.932;2022-12-18T05:57:10;53.53;;;19.20;;
45893;SDS011;31603;51.148;16.932;2022-12-18T05:59:50;47.07;;;17.73;;
45893;SDS011;31603;51.148;16.932;2022-12-18T06:02:18;45.47;;;16.13;;
45893;SDS011;31603;51.148;16.932;2022-12-18T06:05:03;50.67;;;17.47;;
45893;SDS011;31603;51.148;16.932;2022-12-18T06:07:46;43.70;;;16.23;;
45893;SDS011;31603;51.148;16.932;2022-12-18T06:10:19;47.20;;;17.40;;
45893;SDS011;31603;51.148;16.932;2022-12-18T06:16:38;46.97;;;18.13;;
45893;SDS011;31603;51.148;16.932;2022-12-18T06:18:34;47.80;;;19.20;;
45893;SDS011;31603;51.148;16.932;2022-12-18T06:21:01;48.37;;;19.30;;
45893;SDS011;31603;51.148;16.932;2022-12-18T06:23:33;47.63;;;18.73;;
45893;SDS011;31603;51.148;16.932;2022-12-18T06:26:20;51.07;;;19.63;;
45893;SDS011;31603;51.148;16.932;2022-12-18T06:34:16;57.20;;;22.90;;
45893;SDS011;31603;51.148;16.932;2022-12-18T06:36:42;53.23;;;20.70;;
45893;SDS011;31603;51.148;16.932;2022-12-18T06:39:11;60.20;;;21.17;;
45893;SDS011;31603;51.148;16.932;2022-12-18T06:41:44;63.27;;;23.13;;
45893;SDS011;31603;51.148;16.932;2022-12-18T06:44:15;61.20;;;22.37;;
45893;SDS011;31603;51.148;16.932;2022-12-18T06:46:44;50.80;;;20.63;;
45893;SDS011;31603;51.148;16.932;2022-12-18T06:49:15;63.13;;;22.23;;
45893;SDS011;31603;51.148;16.932;2022-12-18T06:52:02;63.07;;;23.07;;
45893;SDS011;31603;51.148;16.932;2022-12-18T06:54:35;60.67;;;23.10;;
45893;SDS011;31603;51.148;16.932;2022-12-18T06:57:07;63.63;;;23.53;;
45893;SDS011;31603;51.148;16.932;2022-12-18T06:59:51;72.57;;;21.73;;
45893;SDS011;31603;51.148;16.932;2022-12-18T07:02:22;64.73;;;23.07;;
45893;SDS011;31603;51.148;16.932;2022-12-18T07:05:19;61.90;;;21.43;;
45893;SDS011;31603;51.148;16.932;2022-12-18T07:08:39;59.53;;;21.70;;
45893;SDS011;31603;51.148;16.932;2022-12-18T07:10:41;71.67;;;25.60;;
45893;SDS011;31603;51.148;16.932;2022-12-18T07:13:22;62.63;;;25.50;;
45893;SDS011;31603;51.148;16.932;2022-12-18T07:18:42;63.47;;;22.10;;
45893;SDS011;31603;51.148;16.932;2022-12-18T07:23:59;61.03;;;22.80;;
45893;SDS011;31603;51.148;16.932;2022-12-18T07:26:32;66.13;;;23.40;;
45893;SDS011;31603;51.148;16.932;2022-12-18T07:29:04;65.57;;;25.10;;
45893;SDS011;31603;51.148;16.932;2022-12-18T07:34:18;63.43;;;24.00;;
45893;SDS011;31603;51.148;16.932;2022-12-18T07:36:45;69.23;;;23.73;;
45893;SDS011;31603;51.148;16.932;2022-12-18T07:40:03;69.83;;;24.10;;
45893;SDS011;31603;51.148;16.932;2022-12-18T07:42:27;64.35;;;22.85;;
45893;SDS011;31603;51.148;16.932;2022-12-18T07:45:02;63.40;;;22.90;;
45893;SDS011;31603;51.148;16.932;2022-12-18T07:50:16;51.77;;;21.33;;
45893;SDS011;31603;51.148;16.932;2022-12-18T07:52:43;50.67;;;19.97;;
45893;SDS011;31603;51.148;16.932;2022-12-18T07:55:09;52.90;;;21.00;;
45893;SDS011;31603;51.148;16.932;2022-12-18T07:57:59;53.43;;;21.60;;
45893;SDS011;31603;51.148;16.932;2022-12-18T08:00:31;47.33;;;17.97;;
45893;SDS011;31603;51.148;16.932;2022-12-18T08:06:07;52.53;;;19.90;;
45893;SDS011;31603;51.148;16.932;2022-12-18T08:08:35;44.77;;;18.57;;
45893;SDS011;31603;51.148;16.932;2022-12-18T08:11:19;53.10;;;20.60;;
45893;SDS011;31603;51.148;16.932;2022-12-18T08:14:07;51.90;;;19.77;;
45893;SDS011;31603;51.148;16.932;2022-12-18T08:16:33;48.50;;;20.30;;
45893;SDS011;31603;51.148;16.932;2022-12-18T08:21:43;49.53;;;20.23;;
45893;SDS011;31603;51.148;16.932;2022-12-18T08:24:13;54.57;;;19.63;;
45893;SDS011;31603;51.148;16.932;2022-12-18T08:26:45;53.33;;;20.73;;
45893;SDS011;31603;51.148;16.932;2022-12-18T08:32:11;51.17;;;20.73;;
45893;SDS011;31603;51.148;16.932;2022-12-18T08:34:41;51.20;;;18.97;;
45893;SDS011;31603;51.148;16.932;2022-12-18T08:37:08;50.75;;;20.55;;
45893;SDS011;31603;51.148;16.932;2022-12-18T08:40:43;59.33;;;21.17;;
45893;SDS011;31603;51.148;16.932;2022-12-18T08:42:29;59.20;;;22.43;;
45893;SDS011;31603;51.148;16.932;2022-12-18T08:45:13;59.97;;;22.20;;
45893;SDS011;31603;51.148;16.932;2022-12-18T08:47:53;60.83;;;22.47;;
45893;SDS011;31603;51.148;16.932;2022-12-18T08:50:48;58.60;;;23.73;;
45893;SDS011;31603;51.148;16.932;2022-12-18T08:53:32;59.77;;;22.10;;
45893;SDS011;31603;51.148;16.932;2022-12-18T08:58:51;54.17;;;20.47;;
45893;SDS011;31603;51.148;16.932;2022-12-18T09:01:46;56.00;;;21.07;;
45893;SDS011;31603;51.148;16.932;2022-12-18T09:04:43;53.22;;;22.38;;
45893;SDS011;31603;51.148;16.932;2022-12-18T09:10:27;47.67;;;19.63;;
45893;SDS011;31603;51.148;16.932;2022-12-18T09:13:01;52.70;;;20.53;;
45893;SDS011;31603;51.148;16.932;2022-12-18T09:15:34;53.07;;;18.90;;
45893;SDS011;31603;51.148;16.932;2022-12-18T09:18:22;42.07;;;19.83;;
45893;SDS011;31603;51.148;16.932;2022-12-18T09:21:20;48.25;;;19.77;;
45893;SDS011;31603;51.148;16.932;2022-12-18T09:23:56;41.37;;;16.87;;
45893;SDS011;31603;51.148;16.932;2022-12-18T09:26:34;54.20;;;22.37;;
45893;SDS011;31603;51.148;16.932;2022-12-18T09:29:20;48.95;;;19.40;;
45893;SDS011;31603;51.148;16.932;2022-12-18T09:32:07;48.17;;;19.80;;
45893;SDS011;31603;51.148;16.932;2022-12-18T09:34:38;47.67;;;21.27;;
45893;SDS011;31603;51.148;16.932;2022-12-18T09:37:17;50.40;;;20.73;;
45893;SDS011;31603;51.148;16.932;2022-12-18T09:43:00;53.13;;;21.03;;
45893;SDS011;31603;51.148;16.932;2022-12-18T09:46:09;53.10;;;20.07;;
45893;SDS011;31603;51.148;16.932;2022-12-18T09:48:42;51.67;;;21.07;;
45893;SDS011;31603;51.148;16.932;2022-12-18T09:51:14;48.90;;;19.03;;
45893;SDS011;31603;51.148;16.932;2022-12-18T09:54:52;47.73;;;19.03;;
45893;SDS011;31603;51.148;16.932;2022-12-18T09:57:19;49.63;;;19.67;;
45893;SDS011;31603;51.148;16.932;2022-12-18T10:00:02;44.30;;;18.40;;
45893;SDS011;31603;51.148;16.932;2022-12-18T10:02:34;50.43;;;20.83;;
45893;SDS011;31603;51.148;16.932;2022-12-18T10:05:03;48.53;;;19.07;;
45893;SDS011;31603;51.148;16.932;2022-12-18T10:07:52;49.37;;;19.93;;
45893;SDS011;31603;51.148;16.932;2022-12-18T10:10:39;46.97;;;20.50;;
45893;SDS011;31603;51.148;16.932;2022-12-18T10:13:28;51.13;;;19.60;;
45893;SDS011;31603;51.148;16.932;2022-12-18T10:16:09;47.83;;;19.43;;
45893;SDS011;31603;51.148;16.932;2022-12-18T10:21:51;47.77;;;20.47;;
45893;SDS011;31603;51.148;16.932;2022-12-18T10:24:39;58.73;;;20.57;;
45893;SDS011;31603;51.148;16.932;2022-12-18T10:27:26;52.70;;;19.77;;
45893;SDS011;31603;51.148;16.932;2022-12-18T10:30:11;51.90;;;21.00;;
45893;SDS011;31603;51.148;16.932;2022-12-18T10:32:46;55.57;;;20.70;;
45893;SDS011;31603;51.148;16.932;2022-12-18T10:35:26;55.63;;;21.47;;
45893;SDS011;31603;51.148;16.932;2022-12-18T10:38:19;58.57;;;23.57;;
45893;SDS011;31603;51.148;16.932;2022-12-18T10:41:07;58.53;;;21.88;;
45893;SDS011;31603;51.148;16.932;2022-12-18T10:44:18;52.42;;;21.17;;
45893;SDS011;31603;51.148;16.932;2022-12-18T10:46:46;54.73;;;21.00;;
45893;SDS011;31603;51.148;16.932;2022-12-18T10:49:29;56.45;;;20.75;;
45893;SDS011;31603;51.148;16.932;2022-12-18T10:54:52;62.60;;;22.97;;
45893;SDS011;31603;51.148;16.932;2022-12-18T10:57:48;50.67;;;21.47;;
45893;SDS011;31603;51.148;16.932;2022-12-18T11:00:24;54.57;;;22.23;;
45893;SDS011;31603;51.148;16.932;2022-12-18T11:02:56;58.70;;;23.20;;
45893;SDS011;31603;51.148;16.932;2022-12-18T11:05:29;55.63;;;22.40;;
45893;SDS011;31603;51.148;16.932;2022-12-18T11:08:01;58.57;;;21.10;;
45893;SDS011;31603;51.148;16.932;2022-12-18T11:10:39;56.63;;;20.73;;
45893;SDS011;31603;51.148;16.932;2022-12-18T11:13:15;58.43;;;21.63;;
45893;SDS011;31603;51.148;16.932;2022-12-18T11:15:53;63.93;;;22.23;;
45893;SDS011;31603;51.148;16.932;2022-12-18T11:18:25;57.30;;;23.10;;
45893;SDS011;31603;51.148;16.932;2022-12-18T11:21:00;61.87;;;22.37;;
45893;SDS011;31603;51.148;16.932;2022-12-18T11:23:33;67.33;;;24.20;;
45893;SDS011;31603;51.148;16.932;2022-12-18T11:26:19;66.13;;;23.50;;
45893;SDS011;31603;51.148;16.932;2022-12-18T11:28:47;63.03;;;22.33;;
45893;SDS011;31603;51.148;16.932;2022-12-18T11:31:51;64.33;;;22.73;;
45893;SDS011;31603;51.148;16.932;2022-12-18T11:34:42;67.13;;;25.70;;
45893;SDS011;31603;51.148;16.932;2022-12-18T11:37:26;69.67;;;24.93;;
45893;SDS011;31603;51.148;16.932;2022-12-18T11:40:09;66.40;;;24.27;;
45893;SDS011;31603;51.148;16.932;2022-12-18T11:42:44;62.03;;;23.50;;
45893;SDS011;31603;51.148;16.932;2022-12-18T11:45:24;56.80;;;20.70;;
45893;SDS011;31603;51.148;16.932;2022-12-18T11:48:12;61.47;;;22.43;;
45893;SDS011;31603;51.148;16.932;2022-12-18T11:50:50;58.10;;;20.80;;
45893;SDS011;31603;51.148;16.932;2022-12-18T11:53:23;60.13;;;20.80;;
45893;SDS011;31603;51.148;16.932;2022-12-18T11:56:02;55.30;;;19.63;;
45893;SDS011;31603;51.148;16.932;2022-12-18T11:58:57;49.73;;;20.43;;
45893;SDS011;31603;51.148;16.932;2022-12-18T12:02:02;50.20;;;18.83;;
45893;SDS011;31603;51.148;16.932;2022-12-18T12:04:48;54.50;;;19.97;;
45893;SDS011;31603;51.148;16.932;2022-12-18T12:07:35;50.50;;;19.73;;
45893;SDS011;31603;51.148;16.932;2022-12-18T12:10:24;56.70;;;20.77;;
45893;SDS011;31603;51.148;16.932;2022-12-18T12:16:13;49.33;;;18.50;;
45893;SDS011;31603;51.148;16.932;2022-12-18T12:19:25;53.30;;;20.13;;
45893;SDS011;31603;51.148;16.932;2022-12-18T12:22:24;48.93;;;18.83;;
45893;SDS011;31603;51.148;16.932;2022-12-18T12:25:10;52.85;;;20.77;;
45893;SDS011;31603;51.148;16.932;2022-12-18T12:27:54;53.43;;;22.90;;
45893;SDS011;31603;51.148;16.932;2022-12-18T12:30:39;56.33;;;20.70;;
45893;SDS011;31603;51.148;16.932;2022-12-18T12:33:33;50.42;;;21.02;;
45893;SDS011;31603;51.148;16.932;2022-12-18T12:36:40;51.27;;;20.27;;
45893;SDS011;31603;51.148;16.932;2022-12-18T12:39:26;51.03;;;20.30;;
45893;SDS011;31603;51.148;16.932;2022-12-18T12:41:56;59.13;;;21.07;;
45893;SDS011;31603;51.148;16.932;2022-12-18T12:44:59;53.17;;;20.27;;
45893;SDS011;31603;51.148;16.932;2022-12-18T12:47:38;52.97;;;21.83;;
45893;SDS011;31603;51.148;16.932;2022-12-18T12:50:20;57.17;;;22.90;;
45893;SDS011;31603;51.148;16.932;2022-12-18T12:53:05;60.47;;;22.70;;
45893;SDS011;31603;51.148;16.932;2022-12-18T12:55:36;57.50;;;21.57;;
45893;SDS011;31603;51.148;16.932;2022-12-18T12:58:41;59.93;;;23.57;;
45893;SDS011;31603;51.148;16.932;2022-12-18T13:04:15;53.13;;;21.13;;
45893;SDS011;31603;51.148;16.932;2022-12-18T13:06:57;55.87;;;22.27;;
45893;SDS011;31603;51.148;16.932;2022-12-18T13:13:08;58.43;;;22.47;;
45893;SDS011;31603;51.148;16.932;2022-12-18T13:16:14;60.83;;;22.30;;
45893;SDS011;31603;51.148;16.932;2022-12-18T13:18:36;60.63;;;21.30;;
45893;SDS011;31603;51.148;16.932;2022-12-18T13:21:07;75.63;;;24.10;;
45893;SDS011;31603;51.148;16.932;2022-12-18T13:24:08;64.07;;;23.87;;
45893;SDS011;31603;51.148;16.932;2022-12-18T13:26:43;74.27;;;26.30;;
45893;SDS011;31603;51.148;16.932;2022-12-18T13:29:15;67.87;;;24.77;;
45893;SDS011;31603;51.148;16.932;2022-12-18T13:32:25;65.97;;;24.47;;
45893;SDS011;31603;51.148;16.932;2022-12-18T13:38:21;79.50;;;26.90;;
45893;SDS011;31603;51.148;16.932;2022-12-18T13:41:00;70.38;;;25.88;;
45893;SDS011;31603;51.148;16.932;2022-12-18T13:45:39;75.30;;;26.57;;
45893;SDS011;31603;51.148;16.932;2022-12-18T13:46:24;76.27;;;26.67;;
45893;SDS011;31603;51.148;16.932;2022-12-18T13:49:16;71.50;;;25.27;;
45893;SDS011;31603;51.148;16.932;2022-12-18T13:52:15;79.77;;;28.60;;
45893;SDS011;31603;51.148;16.932;2022-12-18T13:54:44;71.77;;;27.03;;
45893;SDS011;31603;51.148;16.932;2022-12-18T14:00:26;68.50;;;25.07;;
45893;SDS011;31603;51.148;16.932;2022-12-18T14:03:15;70.45;;;26.08;;
45893;SDS011;31603;51.148;16.932;2022-12-18T14:05:55;73.73;;;26.63;;
45893;SDS011;31603;51.148;16.932;2022-12-18T14:08:44;70.43;;;26.13;;
45893;SDS011;31603;51.148;16.932;2022-12-18T14:11:18;76.00;;;27.70;;
45893;SDS011;31603;51.148;16.932;2022-12-18T14:16:48;77.57;;;27.73;;
45893;SDS011;31603;51.148;16.932;2022-12-18T14:19:31;75.35;;;28.58;;
45893;SDS011;31603;51.148;16.932;2022-12-18T14:22:25;69.40;;;25.20;;
45893;SDS011;31603;51.148;16.932;2022-12-18T14:25:06;73.80;;;26.70;;
45893;SDS011;31603;51.148;16.932;2022-12-18T14:28:00;73.77;;;24.80;;
45893;SDS011;31603;51.148;16.932;2022-12-18T14:30:47;81.97;;;29.70;;
45893;SDS011;31603;51.148;16.932;2022-12-18T14:33:19;81.33;;;26.87;;
45893;SDS011;31603;51.148;16.932;2022-12-18T14:35:57;77.43;;;27.70;;
45893;SDS011;31603;51.148;16.932;2022-12-18T14:38:34;78.93;;;26.20;;
45893;SDS011;31603;51.148;16.932;2022-12-18T14:41:09;73.50;;;26.30;;
45893;SDS011;31603;51.148;16.932;2022-12-18T14:43:56;74.77;;;25.97;;
45893;SDS011;31603;51.148;16.932;2022-12-18T14:46:48;80.10;;;27.53;;
45893;SDS011;31603;51.148;16.932;2022-12-18T14:49:20;70.90;;;26.70;;
45893;SDS011;31603;51.148;16.932;2022-12-18T14:51:56;74.17;;;27.33;;
45893;SDS011;31603;51.148;16.932;2022-12-18T14:57:00;77.30;;;27.13;;
45893;SDS011;31603;51.148;16.932;2022-12-18T14:59:29;75.17;;;26.03;;
45893;SDS011;31603;51.148;16.932;2022-12-18T15:02:19;73.70;;;25.80;;
45893;SDS011;31603;51.148;16.932;2022-12-18T15:04:59;82.00;;;27.77;;
45893;SDS011;31603;51.148;16.932;2022-12-18T15:08:00;86.73;;;29.97;;
45893;SDS011;31603;51.148;16.932;2022-12-18T15:10:31;78.87;;;27.30;;
45893;SDS011;31603;51.148;16.932;2022-12-18T15:13:20;84.70;;;29.53;;
45893;SDS011;31603;51.148;16.932;2022-12-18T15:15:57;89.87;;;28.83;;
45893;SDS011;31603;51.148;16.932;2022-12-18T15:18:46;85.73;;;30.60;;
45893;SDS011;31603;51.148;16.932;2022-12-18T15:21:34;93.93;;;31.60;;
45893;SDS011;31603;51.148;16.932;2022-12-18T15:24:01;86.30;;;29.63;;
45893;SDS011;31603;51.148;16.932;2022-12-18T15:26:30;78.23;;;29.43;;
45893;SDS011;31603;51.148;16.932;2022-12-18T15:29:15;86.37;;;32.53;;
45893;SDS011;31603;51.148;16.932;2022-12-18T15:32:00;86.20;;;30.60;;
45893;SDS011;31603;51.148;16.932;2022-12-18T15:34:42;88.53;;;29.97;;
45893;SDS011;31603;51.148;16.932;2022-12-18T15:37:10;85.53;;;30.03;;
45893;SDS011;31603;51.148;16.932;2022-12-18T15:39:56;97.13;;;32.70;;
45893;SDS011;31603;51.148;16.932;2022-12-18T15:42:22;90.63;;;30.63;;
45893;SDS011;31603;51.148;16.932;2022-12-18T15:45:07;85.17;;;28.93;;
45893;SDS011;31603;51.148;16.932;2022-12-18T15:47:52;87.17;;;27.77;;
45893;SDS011;31603;51.148;16.932;2022-12-18T15:50:20;93.87;;;31.03;;
45893;SDS011;31603;51.148;16.932;2022-12-18T15:52:47;88.83;;;31.10;;
45893;SDS011;31603;51.148;16.932;2022-12-18T15:55:18;86.22;;;33.00;;
45893;SDS011;31603;51.148;16.932;2022-12-18T15:58:03;90.00;;;30.07;;
45893;SDS011;31603;51.148;16.932;2022-12-18T16:00:37;96.43;;;31.83;;
45893;SDS011;31603;51.148;16.932;2022-12-18T16:05:38;82.90;;;28.93;;
45893;SDS011;31603;51.148;16.932;2022-12-18T16:08:07;92.00;;;31.63;;
45893;SDS011;31603;51.148;16.932;2022-12-18T16:10:55;100.10;;;32.17;;
45893;SDS011;31603;51.148;16.932;2022-12-18T16:13:33;94.03;;;31.83;;
45893;SDS011;31603;51.148;16.932;2022-12-18T16:16:21;93.77;;;33.50;;
45893;SDS011;31603;51.148;16.932;2022-12-18T16:21:15;96.13;;;32.63;;
45893;SDS011;31603;51.148;16.932;2022-12-18T16:24:21;109.77;;;40.23;;
45893;SDS011;31603;51.148;16.932;2022-12-18T16:26:41;96.50;;;34.23;;
45893;SDS011;31603;51.148;16.932;2022-12-18T16:29:12;105.90;;;32.60;;
45893;SDS011;31603;51.148;16.932;2022-12-18T16:31:56;109.20;;;35.27;;
45893;SDS011;31603;51.148;16.932;2022-12-18T16:34:27;107.57;;;33.97;;
45893;SDS011;31603;51.148;16.932;2022-12-18T16:37:03;103.00;;;33.43;;
45893;SDS011;31603;51.148;16.932;2022-12-18T16:39:57;104.67;;;37.67;;
45893;SDS011;31603;51.148;16.932;2022-12-18T16:42:26;101.70;;;33.40;;
45893;SDS011;31603;51.148;16.932;2022-12-18T16:45:04;107.07;;;37.00;;
45893;SDS011;31603;51.148;16.932;2022-12-18T16:47:33;104.00;;;35.50;;
45893;SDS011;31603;51.148;16.932;2022-12-18T16:50:17;92.60;;;32.35;;
45893;SDS011;31603;51.148;16.932;2022-12-18T16:55:39;110.07;;;36.77;;
45893;SDS011;31603;51.148;16.932;2022-12-18T16:58:29;106.93;;;36.70;;
45893;SDS011;31603;51.148;16.932;2022-12-18T17:01:06;108.83;;;36.70;;
45893;SDS011;31603;51.148;16.932;2022-12-18T17:04:07;108.13;;;36.27;;